Time;durP1;ratioP1;P1;durP2;ratioP2;P2;SDS_P1;SDS_P2;PMS_P1;PMS_P2;Temp;Humidity;BMP_temperature;BMP_pressure;BME280_temperature;BME280_humidity;BME280_pressure;Samples;Min_cycle;Max_cycle;Signal;HPM_P1;HPM_P2
2021/05/07 00:02:08;;;;;;;5.97;3.13;;;;;;;5.74;100.00;99839.03;4999142;28;20240;-79
2021/05/07 00:04:34;;;;;;;3.90;3.27;;;;;;;5.71;100.00;99836.81;5001502;28;20182;-79
2021/05/07 00:06:59;;;;;;;3.93;3.37;;;;;;;5.94;100.00;99839.97;4998755;28;20703;-78
2021/05/07 00:09:28;;;;;;;3.33;3.00;;;;;;;6.15;100.00;99837.06;5014899;28;20185;-77
2021/05/07 00:11:57;;;;;;;4.67;3.37;;;;;;;6.13;100.00;99833.81;4997394;28;20225;-79
2021/05/07 00:14:25;;;;;;;4.90;3.47;;;;;;;6.06;100.00;99852.13;4999892;28;20273;-78
2021/05/07 00:16:56;;;;;;;8.17;3.80;;;;;;;6.10;100.00;99844.31;5000135;28;20745;-78
2021/05/07 00:19:24;;;;;;;4.03;3.43;;;;;;;6.06;100.00;99849.41;4983813;28;20193;-78
2021/05/07 00:21:50;;;;;;;4.53;2.93;;;;;;;6.02;100.00;99842.13;5004526;28;20233;-78
2021/05/07 00:24:17;;;;;;;4.13;3.20;;;;;;;6.02;100.00;99837.56;4990992;28;20193;-79
2021/05/07 00:26:43;;;;;;;3.60;3.10;;;;;;;6.20;100.00;99840.59;4989295;28;20226;-79
2021/05/07 00:29:11;;;;;;;4.20;3.03;;;;;;;6.36;100.00;99836.09;5022714;28;20220;-79
2021/05/07 00:31:36;;;;;;;4.33;2.80;;;;;;;6.22;100.00;99829.56;5004217;28;20232;-80
2021/05/07 00:34:06;;;;;;;4.33;2.43;;;;;;;6.19;100.00;99827.38;5018839;28;20182;-79
2021/05/07 00:36:34;;;;;;;2.83;2.43;;;;;;;6.27;100.00;99825.00;5006945;28;20229;-79
2021/05/07 00:39:03;;;;;;;4.37;2.50;;;;;;;6.36;100.00;99822.59;4991713;28;20190;-79
2021/05/07 00:41:28;;;;;;;5.37;2.90;;;;;;;6.44;100.00;99814.78;5008203;28;20332;-79
2021/05/07 00:43:56;;;;;;;3.10;2.80;;;;;;;6.49;100.00;99816.72;5005943;28;20196;-79
2021/05/07 00:46:24;;;;;;;4.47;3.10;;;;;;;6.56;100.00;99824.25;5006439;28;20225;-79
2021/05/07 00:48:49;;;;;;;8.03;3.23;;;;;;;6.53;100.00;99819.38;5023704;28;20264;-79
2021/05/07 00:51:15;;;;;;;6.07;3.40;;;;;;;6.59;100.00;99815.66;5006676;28;20218;-80
2021/05/07 00:53:45;;;;;;;3.73;3.00;;;;;;;6.56;100.00;99823.47;5006984;28;20216;-79
2021/05/07 00:56:11;;;;;;;5.30;3.10;;;;;;;6.50;100.00;99812.91;5007761;28;20256;-79
2021/05/07 00:58:42;;;;;;;7.07;3.60;;;;;;;6.52;100.00;99817.78;5010175;28;20202;-80
2021/05/07 01:01:10;;;;;;;3.93;3.10;;;;;;;6.35;100.00;99816.38;4999159;28;20229;-79
2021/05/07 01:03:36;;;;;;;3.53;2.90;;;;;;;6.47;100.00;99816.16;5014754;28;20233;-79
2021/05/07 01:06:07;;;;;;;3.70;2.90;;;;;;;6.51;100.00;99817.25;4990238;28;20235;-79
2021/05/07 01:08:38;;;;;;;4.63;2.97;;;;;;;6.64;100.00;99818.34;4992391;28;20281;-79
2021/05/07 01:11:06;;;;;;;4.03;3.20;;;;;;;6.51;100.00;99826.94;4997653;28;20222;-80
2021/05/07 01:13:37;;;;;;;5.73;2.90;;;;;;;6.41;100.00;99820.72;5014997;28;20169;-80
2021/05/07 01:16:09;;;;;;;3.60;3.07;;;;;;;6.41;100.00;99836.91;5026344;28;20719;-79
2021/05/07 01:18:36;;;;;;;3.27;2.60;;;;;;;6.34;100.00;99835.53;4989779;28;20224;-79
2021/05/07 01:21:03;;;;;;;4.13;2.80;;;;;;;6.24;100.00;99830.09;5002908;28;20236;-78
2021/05/07 01:23:31;;;;;;;3.73;2.60;;;;;;;6.19;100.00;99843.56;4998972;28;20182;-78
2021/05/07 01:25:57;;;;;;;4.60;2.57;;;;;;;6.24;100.00;99835.50;4998999;28;20278;-79
2021/05/07 01:28:29;;;;;;;3.67;2.83;;;;;;;6.31;100.00;99842.25;5023887;28;20233;-78
2021/05/07 01:30:58;;;;;;;3.13;2.80;;;;;;;6.36;100.00;99838.78;5006277;28;20601;-78
2021/05/07 01:33:34;;;;;;;4.00;2.87;;;;;;;6.38;100.00;99842.03;5020290;28;20197;-78
2021/05/07 01:36:09;;;;;;;3.67;2.80;;;;;;;6.29;100.00;99849.00;5002027;28;20229;-78
2021/05/07 01:38:41;;;;;;;4.80;3.10;;;;;;;6.20;100.00;99848.69;5007263;28;20216;-79
2021/05/07 01:41:08;;;;;;;5.43;2.97;;;;;;;6.37;100.00;99851.16;5012917;28;20221;-79
2021/05/07 01:43:40;;;;;;;6.07;3.47;;;;;;;6.42;100.00;99859.28;5017754;28;20192;-80
2021/05/07 01:46:07;;;;;;;3.23;2.93;;;;;;;6.31;100.00;99857.63;5032589;28;20721;-79
2021/05/07 01:48:35;;;;;;;3.33;3.03;;;;;;;6.45;100.00;99850.69;5017062;28;20277;-79
2021/05/07 01:51:06;;;;;;;4.07;2.83;;;;;;;6.38;100.00;99863.59;5027868;28;20311;-79
2021/05/07 01:53:32;;;;;;;3.73;2.80;;;;;;;6.39;100.00;99859.81;5008122;28;20181;-79
2021/05/07 01:55:58;;;;;;;4.10;2.87;;;;;;;6.31;100.00;99866.53;5023760;28;20221;-79
2021/05/07 01:58:55;;;;;;;5.20;2.90;;;;;;;6.47;100.00;99859.31;5014043;28;20227;-78
2021/05/07 02:01:22;;;;;;;4.80;2.73;;;;;;;6.51;100.00;99865.78;5001260;28;20225;-79
2021/05/07 02:03:50;;;;;;;7.33;3.30;;;;;;;6.72;100.00;99861.00;5017753;28;20630;-79
2021/05/07 02:06:26;;;;;;;4.20;3.20;;;;;;;6.43;100.00;99871.69;5016498;28;20621;-78
2021/05/07 02:08:55;;;;;;;4.50;2.90;;;;;;;6.41;100.00;99873.84;4984222;28;20310;-78
2021/05/07 02:11:25;;;;;;;3.67;2.80;;;;;;;6.45;100.00;99875.75;4998840;28;20224;-78
2021/05/07 02:13:51;;;;;;;3.17;2.70;;;;;;;6.39;100.00;99881.38;4999983;28;20189;-78
2021/05/07 02:16:17;;;;;;;3.80;2.87;;;;;;;6.36;100.00;99890.00;5019117;28;20229;-78
2021/05/07 02:18:46;;;;;;;3.90;2.50;;;;;;;6.28;100.00;99883.25;5022185;28;20209;-79
2021/05/07 02:21:14;;;;;;;3.90;2.80;;;;;;;6.29;100.00;99884.06;5020415;28;20213;-79
2021/05/07 02:23:43;;;;;;;4.07;3.17;;;;;;;6.51;100.00;99884.69;5020279;28;20188;-79
2021/05/07 02:26:09;;;;;;;4.23;3.50;;;;;;;6.29;100.00;99886.75;5019633;28;20232;-79
2021/05/07 02:28:43;;;;;;;4.13;3.10;;;;;;;6.44;100.00;99890.31;4989357;28;20200;-78
2021/05/07 02:31:11;;;;;;;3.90;3.27;;;;;;;6.34;100.00;99884.06;5016013;28;20224;-78
2021/05/07 02:33:38;;;;;;;3.30;3.00;;;;;;;6.43;100.00;99887.88;4999991;28;20220;-78
2021/05/07 02:36:06;;;;;;;4.83;3.10;;;;;;;6.36;100.00;99881.94;5017340;28;20717;-78
2021/05/07 02:38:38;;;;;;;4.73;3.70;;;;;;;6.47;100.00;99888.97;5001762;28;20209;-78
2021/05/07 02:41:04;;;;;;;3.97;3.43;;;;;;;6.55;100.00;99887.38;5029164;28;20217;-78
2021/05/07 02:43:32;;;;;;;4.87;3.30;;;;;;;6.57;100.00;99897.91;4996867;28;20593;-78
2021/05/07 02:45:59;;;;;;;3.93;3.60;;;;;;;6.50;100.00;99899.22;5013469;28;20794;-78
2021/05/07 02:48:25;;;;;;;5.00;4.50;;;;;;;6.44;100.00;99911.06;4997606;28;20201;-78
2021/05/07 02:50:56;;;;;;;5.80;5.13;;;;;;;6.01;100.00;99897.94;5016562;28;20715;-78
2021/05/07 02:53:24;;;;;;;6.23;4.90;;;;;;;5.63;100.00;99899.28;5018914;28;20205;-78
2021/05/07 02:55:53;;;;;;;4.83;4.13;;;;;;;5.66;100.00;99912.19;5019036;28;20653;-79
2021/05/07 02:58:19;;;;;;;7.70;4.97;;;;;;;5.40;100.00;99907.69;5018530;28;20209;-78
2021/05/07 03:00:45;;;;;;;7.20;5.13;;;;;;;5.38;100.00;99916.06;4998569;28;20224;-76
2021/05/07 03:03:19;;;;;;;7.47;5.37;;;;;;;5.44;100.00;99914.22;4999745;28;20184;-78
2021/05/07 03:05:47;;;;;;;6.30;4.27;;;;;;;5.25;100.00;99921.03;5034194;28;20713;-76
2021/05/07 03:08:23;;;;;;;6.50;4.63;;;;;;;5.06;100.00;99927.06;5017722;28;20197;-78
2021/05/07 03:10:53;;;;;;;8.93;5.30;;;;;;;5.31;100.00;99920.03;5012970;28;20229;-77
2021/05/07 03:13:19;;;;;;;8.27;5.17;;;;;;;5.26;100.00;99932.63;5013592;28;20193;-78
2021/05/07 03:15:44;;;;;;;8.27;5.40;;;;;;;5.21;100.00;99929.88;5008589;28;20247;-76
2021/05/07 03:18:19;;;;;;;8.07;5.07;;;;;;;5.07;100.00;99928.66;5034093;28;20213;-78
2021/05/07 03:20:48;;;;;;;6.43;5.40;;;;;;;5.27;100.00;99923.47;5011122;28;20224;-77
2021/05/07 03:23:15;;;;;;;8.67;5.57;;;;;;;5.24;100.00;99922.13;5015807;28;20204;-78
2021/05/07 03:25:41;;;;;;;8.90;5.47;;;;;;;5.09;100.00;99927.34;5015487;28;20224;-77
2021/05/07 03:28:07;;;;;;;10.60;6.37;;;;;;;5.16;100.00;99927.94;5001169;28;20255;-78
2021/05/07 03:30:35;;;;;;;8.60;5.67;;;;;;;5.11;100.00;99927.91;4998663;28;20232;-77
2021/05/07 03:33:02;;;;;;;9.47;5.97;;;;;;;5.12;100.00;99921.44;4991130;28;20215;-76
2021/05/07 03:35:31;;;;;;;8.33;6.33;;;;;;;5.18;100.00;99925.84;5019293;28;20729;-78
2021/05/07 03:37:56;;;;;;;10.97;6.30;;;;;;;5.12;100.00;99921.44;5016219;28;20216;-78
2021/05/07 03:40:25;;;;;;;11.23;6.47;;;;;;;5.09;100.00;99932.75;4979738;28;20185;-76
2021/05/07 03:42:51;;;;;;;11.57;6.77;;;;;;;5.18;100.00;99941.97;5011691;28;20197;-77
2021/05/07 03:45:16;;;;;;;10.63;6.87;;;;;;;5.28;100.00;99946.66;5012493;28;20203;-77
2021/05/07 03:47:42;;;;;;;11.67;6.60;;;;;;;5.15;100.00;99958.63;5013595;28;20212;-77
2021/05/07 03:50:13;;;;;;;10.57;5.77;;;;;;;5.16;100.00;99960.22;4997605;28;20185;-77
2021/05/07 03:52:41;;;;;;;8.77;5.87;;;;;;;5.22;100.00;99964.63;4997840;28;20213;-77
2021/05/07 03:55:10;;;;;;;12.47;5.93;;;;;;;5.01;100.00;99956.59;5010618;28;20215;-76
2021/05/07 03:57:49;;;;;;;8.90;5.67;;;;;;;5.15;100.00;99966.69;4997695;28;20197;-76
2021/05/07 04:00:15;;;;;;;10.37;5.80;;;;;;;5.11;100.00;99973.66;4994598;28;20205;-78
2021/05/07 04:02:44;;;;;;;9.93;6.30;;;;;;;5.12;100.00;99975.28;5012841;28;20169;-77
2021/05/07 04:05:13;;;;;;;13.10;6.07;;;;;;;4.97;100.00;99981.56;4996529;28;20181;-78
2021/05/07 04:07:41;;;;;;;12.77;5.77;;;;;;;4.98;100.00;99990.22;4995692;28;20205;-76
2021/05/07 04:10:19;;;;;;;11.43;5.37;;;;;;;5.12;100.00;99986.03;5006226;28;20181;-79
2021/05/07 04:15:16;;;;;;;8.40;5.20;;;;;;;5.18;100.00;99990.44;5021519;28;20181;-78
2021/05/07 04:17:44;;;;;;;10.63;5.37;;;;;;;5.12;100.00;99986.03;5022069;28;20209;-78
2021/05/07 04:20:12;;;;;;;10.03;5.20;;;;;;;5.16;100.00;100003.28;5021244;28;20665;-77
2021/05/07 04:22:41;;;;;;;9.20;5.10;;;;;;;5.07;100.00;100004.00;5007554;28;20177;-78
2021/05/07 04:25:09;;;;;;;12.27;5.90;;;;;;;5.41;100.00;99998.19;5006541;28;20185;-77
2021/05/07 04:27:40;;;;;;;11.03;5.53;;;;;;;5.47;100.00;99991.75;5019896;28;20254;-76
2021/05/07 04:30:09;;;;;;;9.03;5.30;;;;;;;5.48;100.00;100017.63;5022652;28;20233;-77
2021/05/07 04:32:39;;;;;;;5.50;4.20;;;;;;;5.32;100.00;100018.53;5017522;28;20228;-78
2021/05/07 04:35:08;;;;;;;9.40;4.13;;;;;;;5.42;100.00;100008.69;5013475;28;20189;-75
2021/05/07 04:37:34;;;;;;;8.07;4.20;;;;;;;5.53;100.00;100010.41;5008471;28;20201;-76
2021/05/07 04:40:02;;;;;;;9.30;4.13;;;;;;;5.46;100.00;100009.00;5016828;28;20177;-76
2021/05/07 04:42:28;;;;;;;7.60;4.40;;;;;;;5.53;100.00;100031.13;4996433;28;20253;-76
2021/05/07 04:44:53;;;;;;;9.30;5.83;;;;;;;5.55;100.00;100021.75;4977123;28;20361;-75
2021/05/07 04:47:21;;;;;;;10.27;5.20;;;;;;;5.55;100.00;100024.44;4995403;28;20970;-77
2021/05/07 04:49:47;;;;;;;9.50;5.83;;;;;;;5.64;100.00;100033.69;4996589;28;20231;-75
2021/05/07 04:52:13;;;;;;;7.47;4.57;;;;;;;5.70;100.00;100023.78;4996070;28;20223;-77
2021/05/07 04:54:38;;;;;;;6.80;3.90;;;;;;;5.59;100.00;100030.13;5020330;28;20252;-77
2021/05/07 04:57:07;;;;;;;7.73;3.70;;;;;;;5.66;100.00;100041.47;4989286;28;20232;-77
2021/05/07 04:59:38;;;;;;;9.63;3.70;;;;;;;5.62;100.00;100040.38;5027857;28;20197;-78
2021/05/07 05:02:06;;;;;;;4.00;2.83;;;;;;;5.59;100.00;100044.41;5022770;28;20288;-79
2021/05/07 05:04:34;;;;;;;7.50;3.20;;;;;;;5.75;100.00;100054.28;5021390;28;20293;-77
2021/05/07 05:07:03;;;;;;;7.03;3.33;;;;;;;5.82;100.00;100046.78;5005068;28;20375;-78
2021/05/07 05:09:29;;;;;;;5.07;2.97;;;;;;;5.65;100.00;100054.16;5022874;28;20232;-79
2021/05/07 05:11:57;;;;;;;6.27;3.03;;;;;;;5.68;100.00;100055.50;5021814;28;20229;-79
2021/05/07 05:14:25;;;;;;;10.83;3.40;;;;;;;5.50;100.00;100047.81;5024275;28;20722;-77
2021/05/07 05:16:52;;;;;;;7.13;3.17;;;;;;;5.57;100.00;100053.81;4995497;28;20853;-78
2021/05/07 05:19:23;;;;;;;46.53;40.93;;;;;;;5.74;100.00;100060.72;5001819;28;20189;-78
2021/05/07 05:21:49;;;;;;;9.13;5.07;;;;;;;5.74;100.00;100061.53;5004264;28;20212;-77
2021/05/07 05:24:15;;;;;;;8.40;3.90;;;;;;;5.77;100.00;100066.44;5017290;28;20645;-76
2021/05/07 05:26:41;;;;;;;6.70;3.67;;;;;;;5.57;100.00;100075.38;4991894;28;20863;-76
2021/05/07 05:29:12;;;;;;;7.67;3.97;;;;;;;5.94;100.00;100066.31;5031890;28;20193;-78
2021/05/07 05:31:38;;;;;;;7.93;4.17;;;;;;;6.05;100.00;100073.41;5020201;28;20287;-78
2021/05/07 05:34:03;;;;;;;6.70;4.73;;;;;;;6.14;100.00;100072.66;5002353;28;20201;-78
2021/05/07 05:36:29;;;;;;;5.80;4.00;;;;;;;5.98;100.00;100068.22;5021097;28;20221;-79
2021/05/07 05:38:57;;;;;;;5.77;4.00;;;;;;;5.84;100.00;100077.81;4990964;28;20189;-79
2021/05/07 05:41:27;;;;;;;5.03;4.20;;;;;;;5.86;100.00;100081.06;5007574;28;20221;-78
2021/05/07 05:43:55;;;;;;;5.50;4.10;;;;;;;5.85;100.00;100084.81;4989798;28;20666;-78
2021/05/07 05:46:23;;;;;;;7.73;4.13;;;;;;;6.08;100.00;100078.28;5013969;28;20236;-76
2021/05/07 05:48:50;;;;;;;7.37;4.03;;;;;;;6.04;100.00;100096.84;5027430;22;20234;-77
2021/05/07 05:51:16;;;;;;;7.77;4.20;;;;;;;6.18;100.00;100095.34;4969864;28;20237;-77
2021/05/07 05:53:41;;;;;;;8.23;4.60;;;;;;;5.95;100.00;100101.09;4994438;28;20700;-78
2021/05/07 05:56:07;;;;;;;5.80;3.73;;;;;;;6.13;100.00;100095.28;5010428;28;20220;-78
2021/05/07 05:58:33;;;;;;;8.90;4.50;;;;;;;6.10;100.00;100106.59;5011066;28;20212;-77
2021/05/07 06:01:01;;;;;;;5.60;4.00;;;;;;;6.12;100.00;100115.25;4979241;28;20315;-77
2021/05/07 06:03:33;;;;;;;8.13;4.50;;;;;;;6.20;100.00;100117.47;5011504;28;20181;-78
2021/05/07 06:06:01;;;;;;;7.70;4.53;;;;;;;6.14;100.00;100115.81;4979172;28;20234;-78
2021/05/07 06:08:31;;;;;;;6.83;4.73;;;;;;;6.13;100.00;100113.34;4979505;28;20943;-77
2021/05/07 06:10:57;;;;;;;5.60;4.33;;;;;;;5.87;100.00;100123.09;4994653;28;20228;-77
2021/05/07 06:13:27;;;;;;;7.67;4.13;;;;;;;5.75;100.00;100117.06;4994925;28;20191;-76
2021/05/07 06:15:53;;;;;;;8.07;4.73;;;;;;;5.84;100.00;100136.25;4979719;28;20235;-77
2021/05/07 06:18:21;;;;;;;8.30;4.30;;;;;;;5.81;100.00;100126.81;5012168;28;20212;-77
2021/05/07 06:20:49;;;;;;;7.87;4.63;;;;;;;6.13;100.00;100130.34;5010331;28;20224;-77
2021/05/07 06:23:14;;;;;;;9.53;5.37;;;;;;;6.09;100.00;100133.81;4995205;28;20188;-78
2021/05/07 06:25:45;;;;;;;8.70;5.07;;;;;;;6.20;100.00;100125.56;4980105;28;20231;-78
2021/05/07 06:28:13;;;;;;;7.53;5.03;;;;;;;6.20;100.00;100133.63;4997294;28;20204;-79
2021/05/07 06:30:41;;;;;;;7.60;5.20;;;;;;;6.38;100.00;100139.47;4979125;28;20216;-78
2021/05/07 06:33:09;;;;;;;7.60;5.33;;;;;;;6.12;100.00;100139.50;5027222;28;20742;-77
2021/05/07 06:35:36;;;;;;;7.00;5.27;;;;;;;6.41;100.00;100138.94;4994377;28;20231;-77
2021/05/07 06:38:07;;;;;;;9.90;6.10;;;;;;;6.71;100.00;100134.56;4994976;28;20245;-78
2021/05/07 06:40:33;;;;;;;5.63;4.23;;;;;;;6.86;100.00;100140.06;4980586;28;20281;-77
2021/05/07 06:42:58;;;;;;;5.63;4.00;;;;;;;6.75;100.00;100140.28;5012479;28;20215;-77
2021/05/07 06:45:24;;;;;;;7.07;4.13;;;;;;;6.53;100.00;100147.66;4996039;28;20602;-79
2021/05/07 06:47:50;;;;;;;5.33;3.87;;;;;;;6.65;100.00;100148.31;4991420;28;20207;-78
2021/05/07 06:50:18;;;;;;;6.80;4.27;;;;;;;6.77;100.00;100157.81;4998963;28;20180;-78
2021/05/07 06:52:46;;;;;;;7.37;3.80;;;;;;;6.82;100.00;100146.25;5016873;28;20314;-78
2021/05/07 06:55:12;;;;;;;5.63;3.40;;;;;;;6.55;100.00;100157.13;5019794;28;20192;-78
2021/05/07 06:57:45;;;;;;;5.70;3.70;;;;;;;6.50;100.00;100158.16;5022146;28;20262;-80
2021/05/07 07:00:14;;;;;;;4.67;3.80;;;;;;;6.17;100.00;100171.88;5022891;28;20234;-80
2021/05/07 07:02:40;;;;;;;4.43;2.80;;;;;;;5.84;100.00;100176.66;5036204;28;20642;-77
2021/05/07 07:05:14;;;;;;;4.60;3.30;;;;;;;5.74;100.00;100181.97;5008069;28;20192;-78
2021/05/07 07:07:40;;;;;;;2.50;2.30;;;;;;;5.71;100.00;100179.72;5007907;28;20242;-78
2021/05/07 07:10:06;;;;;;;3.40;2.93;;;;;;;5.86;100.00;100186.16;5035478;28;20209;-76
2021/05/07 07:12:32;;;;;;;3.07;2.77;;;;;;;5.75;100.00;100187.09;4998404;28;20311;-78
2021/05/07 07:15:01;;;;;;;3.47;2.80;;;;;;;5.88;100.00;100192.09;4984018;28;20343;-77
2021/05/07 07:17:26;;;;;;;4.00;3.20;;;;;;;6.17;100.00;100198.84;5010477;28;20225;-78
2021/05/07 07:19:54;;;;;;;3.30;2.70;;;;;;;6.37;100.00;100196.34;4981216;28;20177;-77
2021/05/07 07:22:22;;;;;;;3.30;2.30;;;;;;;6.32;100.00;100199.81;4997274;28;20230;-78
2021/05/07 07:24:49;;;;;;;2.47;2.27;;;;;;;6.54;100.00;100200.56;4979937;28;20399;-78
2021/05/07 07:27:15;;;;;;;3.43;2.33;;;;;;;6.19;100.00;100207.50;4995719;28;20610;-77
2021/05/07 07:29:44;;;;;;;2.50;2.23;;;;;;;6.32;100.00;100207.91;5014720;28;20189;-77
2021/05/07 07:32:09;;;;;;;2.67;2.47;;;;;;;6.70;100.00;100207.69;4978284;28;20228;-77
2021/05/07 07:34:35;;;;;;;2.47;2.27;;;;;;;6.78;100.00;100216.13;5015470;28;20200;-78
2021/05/07 07:37:03;;;;;;;2.50;2.10;;;;;;;6.97;100.00;100215.44;4999961;28;20618;-77
2021/05/07 07:39:29;;;;;;;2.10;2.00;;;;;;;6.55;100.00;100221.84;4983020;28;20272;-80
2021/05/07 07:41:59;;;;;;;2.87;1.83;;;;;;;6.87;100.00;100219.97;5000607;28;20221;-79
2021/05/07 07:44:25;;;;;;;2.53;1.90;;;;;;;6.89;100.00;100220.53;5037989;28;20561;-79
2021/05/07 07:46:51;;;;;;;2.10;1.80;;;;;;;6.69;100.00;100231.16;5042083;28;20227;-78
2021/05/07 07:49:17;;;;;;;2.03;1.93;;;;;;;6.35;100.00;100241.63;5058703;28;20601;-79
2021/05/07 07:51:43;;;;;;;4.03;1.90;;;;;;;6.86;100.00;100237.22;5040499;28;20712;-78
2021/05/07 07:54:12;;;;;;;2.03;1.90;;;;;;;6.56;100.00;100244.28;5045288;28;20183;-78
2021/05/07 07:56:45;;;;;;;3.47;1.97;;;;;;;6.22;100.00;100252.81;5027304;28;20231;-79
2021/05/07 07:59:13;;;;;;;2.90;1.87;;;;;;;6.55;100.00;100256.94;5046763;28;20190;-77
2021/05/07 08:01:42;;;;;;;2.40;2.20;;;;;;;6.22;100.00;100259.03;5061871;28;20594;-81
2021/05/07 08:04:08;;;;;;;2.83;2.30;;;;;;;6.23;100.00;100259.84;5062030;28;20190;-77
2021/05/07 08:06:34;;;;;;;3.07;2.30;;;;;;;6.15;100.00;100268.38;5010969;28;20219;-78
2021/05/07 08:09:00;;;;;;;3.17;2.27;;;;;;;6.27;100.00;100269.06;5042472;28;20195;-78
2021/05/07 08:11:28;;;;;;;2.70;2.30;;;;;;;5.95;100.00;100273.56;5039889;28;20748;-78
2021/05/07 08:13:53;;;;;;;3.00;2.20;;;;;;;6.32;100.00;100272.63;5037424;28;20187;-77
2021/05/07 08:16:19;;;;;;;2.40;2.17;;;;;;;6.58;100.00;100269.91;5036564;28;20227;-78
2021/05/07 08:18:45;;;;;;;3.30;2.43;;;;;;;6.91;100.00;100280.47;5036230;28;20733;-78
2021/05/07 08:21:10;;;;;;;3.47;2.73;;;;;;;7.12;100.00;100271.44;5015781;28;20702;-78
2021/05/07 08:23:36;;;;;;;4.07;3.07;;;;;;;7.13;100.00;100281.19;5015908;28;20654;-79
2021/05/07 08:26:04;;;;;;;3.20;2.90;;;;;;;6.96;100.00;100294.00;5008169;28;20665;-78
2021/05/07 08:28:33;;;;;;;2.97;2.60;;;;;;;7.12;100.00;100277.66;5038033;28;20386;-77
2021/05/07 08:31:01;;;;;;;3.83;3.10;;;;;;;7.30;100.00;100296.94;5036635;28;20230;-78
2021/05/07 08:33:26;;;;;;;3.10;2.90;;;;;;;7.07;100.00;100295.69;5039875;28;20226;-78
2021/05/07 08:35:52;;;;;;;3.30;3.00;;;;;;;7.38;100.00;100299.19;5030776;28;20231;-80
2021/05/07 08:38:21;;;;;;;3.70;3.00;;;;;;;7.41;100.00;100304.06;5063471;28;20204;-78
2021/05/07 08:40:46;;;;;;;3.30;2.63;;;;;;;7.47;100.00;100313.00;5036689;28;20230;-77
2021/05/07 08:43:14;;;;;;;3.87;2.63;;;;;;;7.17;100.00;100315.50;5038170;28;20192;-79
2021/05/07 08:45:40;;;;;;;3.10;2.80;;;;;;;7.95;100.00;100313.53;5018881;28;20604;-78
2021/05/07 08:48:07;;;;;;;3.60;2.67;;;;;;;7.81;100.00;100313.22;5001870;28;20227;-77
2021/05/07 08:50:33;;;;;;;3.33;2.60;;;;;;;8.20;100.00;100319.91;5022276;28;20219;-78
2021/05/07 08:52:59;;;;;;;2.10;1.90;;;;;;;8.29;100.00;100319.13;5037897;28;20302;-78
2021/05/07 08:55:27;;;;;;;2.73;2.20;;;;;;;8.33;100.00;100322.13;5019717;28;20234;-78
2021/05/07 08:57:56;;;;;;;2.53;2.23;;;;;;;8.52;100.00;100324.09;5022883;28;20594;-79
2021/05/07 09:00:24;;;;;;;2.20;2.00;;;;;;;8.87;100.00;100322.25;5020124;28;20196;-77
2021/05/07 09:02:54;;;;;;;2.97;2.30;;;;;;;8.75;100.00;100326.28;5024231;28;20207;-77
2021/05/07 09:05:33;;;;;;;2.77;2.10;;;;;;;8.65;100.00;100321.66;5023862;28;20230;-78
2021/05/07 09:07:58;;;;;;;2.67;1.57;;;;;;;8.58;99.37;100325.72;5016461;28;20214;-77
2021/05/07 09:10:34;;;;;;;2.03;1.83;;;;;;;8.59;100.00;100330.03;5008553;28;20180;-77
2021/05/07 09:13:00;;;;;;;2.77;1.70;;;;;;;8.73;100.00;100326.53;5006337;28;20230;-78
2021/05/07 09:15:46;;;;;;;2.23;1.70;;;;;;;10.21;98.51;100325.59;5021558;28;20219;-77
2021/05/07 09:18:15;;;;;;;2.77;1.60;;;;;;;10.39;96.08;100315.72;5020942;28;20203;-78
2021/05/07 09:20:42;;;;;;;2.27;1.20;;;;;;;9.52;89.32;100329.25;5014037;28;20231;-80
2021/05/07 09:23:12;;;;;;;3.27;1.53;;;;;;;9.62;92.78;100332.78;5021639;28;20185;-77
2021/05/07 09:26:02;;;;;;;3.63;1.60;;;;;;;9.06;94.20;100345.00;5023749;28;20215;-78
2021/05/07 09:28:27;;;;;;;1.80;1.70;;;;;;;8.86;97.95;100340.41;5024223;28;20203;-78
2021/05/07 09:30:53;;;;;;;1.50;1.40;;;;;;;8.81;98.79;100345.00;5024808;28;20230;-79
2021/05/07 09:33:19;;;;;;;2.40;1.80;;;;;;;8.43;99.23;100355.44;5004867;28;20199;-77
2021/05/07 09:35:44;;;;;;;2.13;1.60;;;;;;;8.18;100.00;100366.16;5038857;28;20892;-78
2021/05/07 09:38:20;;;;;;;2.37;1.77;;;;;;;7.94;100.00;100355.19;5039070;28;20218;-79
2021/05/07 09:40:46;;;;;;;2.10;1.90;;;;;;;7.88;100.00;100369.75;5024196;28;20231;-78
2021/05/07 09:43:20;;;;;;;1.77;1.60;;;;;;;7.76;100.00;100369.13;5019527;28;20192;-79
2021/05/07 09:45:51;;;;;;;1.90;1.80;;;;;;;8.30;100.00;100366.75;5018247;28;20227;-78
2021/05/07 09:48:24;;;;;;;2.27;2.07;;;;;;;8.45;100.00;100374.94;5019179;28;20291;-79
2021/05/07 09:50:50;;;;;;;1.73;1.63;;;;;;;8.48;98.50;100387.94;5016952;28;20227;-79
2021/05/07 09:53:23;;;;;;;2.07;1.87;;;;;;;8.55;98.98;100388.50;5017867;28;20303;-79
2021/05/07 09:55:56;;;;;;;3.10;2.00;;;;;;;9.29;99.25;100385.94;5035743;28;21025;-78
2021/05/07 09:58:22;;;;;;;1.70;1.60;;;;;;;9.67;95.15;100389.72;5003437;28;20204;-78
2021/05/07 10:00:47;;;;;;;2.30;1.80;;;;;;;9.74;92.45;100382.13;5035646;28;20259;-79
2021/05/07 10:03:13;;;;;;;3.90;1.80;;;;;;;10.00;87.50;100383.75;5017821;28;20184;-78
2021/05/07 10:05:41;;;;;;;1.53;1.30;;;;;;;9.87;85.49;100387.00;5002170;28;20713;-79
2021/05/07 10:08:09;;;;;;;2.40;1.30;;;;;;;10.10;81.34;100383.72;5004873;28;20224;-77
2021/05/07 10:10:38;;;;;;;3.13;1.33;;;;;;;10.50;81.04;100385.19;5020198;28;20318;-79
2021/05/07 10:13:07;;;;;;;1.87;1.40;;;;;;;10.76;82.50;100381.25;5001791;28;20594;-80
2021/05/07 10:15:37;;;;;;;2.17;1.30;;;;;;;10.82;78.65;100389.13;5021080;28;20223;-79
2021/05/07 10:18:04;;;;;;;1.53;1.10;;;;;;;10.96;70.52;100389.28;5002722;28;20196;-79
2021/05/07 10:20:37;;;;;;;1.20;0.97;;;;;;;11.37;65.17;100381.41;5035372;28;20231;-79
2021/05/07 10:23:16;;;;;;;2.53;1.00;;;;;;;10.81;66.71;100384.75;5021047;28;20271;-80
2021/05/07 10:25:57;;;;;;;2.63;1.30;;;;;;;11.15;67.47;100377.47;5020444;28;20719;-79
2021/05/07 10:28:26;;;;;;;1.53;1.00;;;;;;;10.67;66.60;100374.78;5020158;28;20594;-80
2021/05/07 10:31:04;;;;;;;1.93;1.00;;;;;;;11.20;64.94;100372.00;5017202;28;20305;-80
2021/05/07 10:33:32;;;;;;;1.57;0.90;;;;;;;11.24;65.89;100386.66;5036349;28;20196;-79
2021/05/07 10:35:58;;;;;;;1.73;1.00;;;;;;;11.27;62.90;100381.47;5017246;28;20232;-80
2021/05/07 10:38:26;;;;;;;2.50;1.10;;;;;;;11.00;67.36;100384.91;5017511;28;20206;-78
2021/05/07 10:41:10;;;;;;;1.97;1.40;;;;;;;11.38;68.24;100383.00;5019032;28;20224;-80
2021/05/07 10:43:50;;;;;;;1.40;1.30;;;;;;;11.58;65.59;100382.88;5025640;28;20195;-78
2021/05/07 10:46:23;;;;;;;2.27;1.43;;;;;;;12.10;63.30;100392.69;5036962;28;20239;-78
2021/05/07 10:48:52;;;;;;;1.47;1.10;;;;;;;10.85;65.18;100404.03;5003240;28;20216;-79
2021/05/07 10:51:24;;;;;;;1.33;1.10;;;;;;;10.08;73.38;100437.44;5020269;28;20253;-80
2021/05/07 10:54:03;;;;;;;1.30;1.20;;;;;;;8.65;87.62;100475.16;5002803;28;20192;-78
2021/05/07 10:56:32;;;;;;;2.27;1.27;;;;;;;7.82;100.00;100478.91;5016300;28;20736;-78
2021/05/07 10:59:16;;;;;;;3.70;1.50;;;;;;;7.02;100.00;100487.34;5033165;28;20196;-77
2021/05/07 11:02:00;;;;;;;3.50;1.70;;;;;;;7.00;100.00;100484.91;5016436;28;20224;-77
2021/05/07 11:04:26;;;;;;;1.70;1.60;;;;;;;6.86;100.00;100482.84;5017836;28;20204;-78
2021/05/07 11:06:59;;;;;;;1.60;1.37;;;;;;;7.35;100.00;100479.88;5002628;28;20215;-80
2021/05/07 11:09:27;;;;;;;1.67;1.20;;;;;;;7.50;100.00;100486.22;5019723;28;20238;-79
2021/05/07 11:11:54;;;;;;;1.97;1.43;;;;;;;7.86;100.00;100485.47;5031302;28;20233;-80
2021/05/07 11:14:23;;;;;;;2.70;1.80;;;;;;;8.42;100.00;100474.78;5041133;28;20178;-79
2021/05/07 11:16:49;;;;;;;2.87;2.37;;;;;;;8.53;100.00;100482.69;5021747;28;20360;-78
2021/05/07 11:19:21;;;;;;;3.30;2.57;;;;;;;9.59;100.00;100484.34;5038386;28;20175;-78
2021/05/07 11:21:59;;;;;;;2.10;1.83;;;;;;;9.30;100.00;100474.28;5054168;28;20226;-78
2021/05/07 11:24:34;;;;;;;1.77;1.67;;;;;;;9.58;100.00;100474.59;5053824;28;20735;-78
2021/05/07 11:27:12;;;;;;;3.23;1.40;;;;;;;9.54;100.00;100470.81;5019569;28;20223;-79
2021/05/07 11:29:45;;;;;;;2.43;1.60;;;;;;;9.87;100.00;100476.50;5036330;28;20195;-80
2021/05/07 11:32:18;;;;;;;2.90;1.50;;;;;;;10.10;100.00;100475.97;5035947;28;20230;-77
2021/05/07 11:34:54;;;;;;;1.33;1.20;;;;;;;10.62;100.00;100482.63;5022489;28;20197;-78
2021/05/07 11:37:23;;;;;;;1.90;1.27;;;;;;;10.12;100.00;100501.72;5040229;28;20222;-79
2021/05/07 11:40:14;;;;;;;1.10;0.90;;;;;;;8.88;100.00;100500.72;5076782;28;20202;-77